If you wish to contribute or participate in the discussions about articles you are invited to join SKYbrary as a registered user

 Actions

Guardiamarina Zañartu Airport

From SKYbrary Wiki

SCGZ
Airport
ICAO: SCGZ – IATA: WPU
Summary
Name Guardiamarina Zañartu Airport
Region South America and Caribbean
Territory Chile CL.gif
Location Puerto Williams, Magallanes y de la Antartica Chilena
Serving Puerto Williams
Elevation 26.822 m
88 ft
88 ft26.822 m
Type medium airport
Coordinates 54° 55' 51.86" S, 67° 37' 34.54" W
Runways
Designator Length Width Surface ROPS
8/26 1440 m4,724.409 ft
29 m95.144 ft
ASP /


METAR
Observation SCGZ 211400Z 07005KT 9999 FEW043 SCT070 10/00 Q1007
Station Guardiamarina Zañartu Airport
Date/Time 21 October 2019 14:00:00
Wind direction 70°
Wind speed 05 kts
Lowest cloud amount few clouds
Temperature 10°C
Dew point 0°C
Humidity 49%
QNH 1007 hPa
Weather condition n/a

Airport serving city of Puerto Williams in southern Chile.

Climatology

Sub-polar oceanic climate (Köppen climate classification Cfc)

Maps

Terrain

Loading map...

Airport Layout

Loading map...


Accidents & Serious Incidents at or in vicinity of SCGZ

None on SKYbrary